Weather at Adnan Menderes International Airport

Public forecast

Using degrees Celsius for public forecast. Weather courtesy of forecast.io.

Current aviation weather report (METAR) for Adnan Menderes International Airport

2024/04/24 14:50 (retrieved 21 minutes ago)

LTBJ 241450Z 23013KT 9999 FEW040 BKN200 24/15 Q1004 NOSIG RMK RWY16 24012KT

Aviation forecast (TAF) for Adnan Menderes International Airport

2024/04/24 12:03 (retrieved 3 hours ago)

TAF LTBJ 241040Z 2412/2512 19017G27KT 9999 FEW040 BKN200 BECMG 2416/2420 VRB02KT TEMPO 2501/2505 4000 BR FEW010 BKN030 PROB30 TEMPO 2502/2506 1200 BCFG SCT008 BKN025 BECMG 2506/2509 18012KT CAVOK BECMG 2509/2512 19016G26KT